sensor_id;sensor_type;location;lat;lon;timestamp;P1;durP1;ratioP1;P2;durP2;ratioP2
26864;SDS011;40618;51.166;10.322;2024-02-04T00:00:30;6.53;;;4.65;;
26864;SDS011;40618;51.166;10.322;2024-02-04T00:02:55;7.35;;;5.03;;
26864;SDS011;40618;51.166;10.322;2024-02-04T00:05:21;6.38;;;4.40;;
26864;SDS011;40618;51.166;10.322;2024-02-04T00:07:47;5.53;;;4.45;;
26864;SDS011;40618;51.166;10.322;2024-02-04T00:10:13;5.43;;;3.72;;
26864;SDS011;40618;51.166;10.322;2024-02-04T00:12:40;4.82;;;3.50;;
26864;SDS011;40618;51.166;10.322;2024-02-04T00:15:06;7.18;;;5.07;;
26864;SDS011;40618;51.166;10.322;2024-02-04T00:17:33;7.05;;;5.20;;
26864;SDS011;40618;51.166;10.322;2024-02-04T00:19:59;5.40;;;4.53;;
26864;SDS011;40618;51.166;10.322;2024-02-04T00:22:27;9.18;;;4.20;;
26864;SDS011;40618;51.166;10.322;2024-02-04T00:24:53;5.57;;;4.32;;
26864;SDS011;40618;51.166;10.322;2024-02-04T00:27:19;4.28;;;3.00;;
26864;SDS011;40618;51.166;10.322;2024-02-04T00:29:44;10.13;;;4.43;;
26864;SDS011;40618;51.166;10.322;2024-02-04T00:32:10;3.85;;;3.25;;
26864;SDS011;40618;51.166;10.322;2024-02-04T00:34:36;4.97;;;3.33;;
26864;SDS011;40618;51.166;10.322;2024-02-04T00:37:01;3.33;;;2.90;;
26864;SDS011;40618;51.166;10.322;2024-02-04T00:39:27;5.53;;;2.65;;
26864;SDS011;40618;51.166;10.322;2024-02-04T00:41:53;4.30;;;3.17;;
26864;SDS011;40618;51.166;10.322;2024-02-04T00:44:18;2.97;;;2.53;;
26864;SDS011;40618;51.166;10.322;2024-02-04T00:46:44;3.53;;;2.72;;
26864;SDS011;40618;51.166;10.322;2024-02-04T00:49:09;3.95;;;3.17;;
26864;SDS011;40618;51.166;10.322;2024-02-04T00:51:35;3.30;;;2.33;;
26864;SDS011;40618;51.166;10.322;2024-02-04T00:54:01;3.33;;;2.20;;
26864;SDS011;40618;51.166;10.322;2024-02-04T00:56:26;4.20;;;3.00;;
26864;SDS011;40618;51.166;10.322;2024-02-04T00:58:52;4.38;;;2.80;;
26864;SDS011;40618;51.166;10.322;2024-02-04T01:01:18;3.40;;;2.55;;
26864;SDS011;40618;51.166;10.322;2024-02-04T01:03:44;3.35;;;2.40;;
26864;SDS011;40618;51.166;10.322;2024-02-04T01:06:11;3.03;;;2.60;;
26864;SDS011;40618;51.166;10.322;2024-02-04T01:08:36;3.38;;;2.58;;
26864;SDS011;40618;51.166;10.322;2024-02-04T01:11:03;3.70;;;2.65;;
26864;SDS011;40618;51.166;10.322;2024-02-04T01:13:30;3.40;;;2.67;;
26864;SDS011;40618;51.166;10.322;2024-02-04T01:15:56;2.92;;;2.47;;
26864;SDS011;40618;51.166;10.322;2024-02-04T01:18:22;4.53;;;3.17;;
26864;SDS011;40618;51.166;10.322;2024-02-04T01:20:48;3.85;;;2.90;;
26864;SDS011;40618;51.166;10.322;2024-02-04T01:23:14;3.17;;;2.80;;
26864;SDS011;40618;51.166;10.322;2024-02-04T01:25:42;3.72;;;2.80;;
26864;SDS011;40618;51.166;10.322;2024-02-04T01:28:08;5.30;;;3.20;;
26864;SDS011;40618;51.166;10.322;2024-02-04T01:30:34;5.55;;;3.20;;
26864;SDS011;40618;51.166;10.322;2024-02-04T01:33:00;3.65;;;2.75;;
26864;SDS011;40618;51.166;10.322;2024-02-04T01:35:25;4.15;;;3.28;;
26864;SDS011;40618;51.166;10.322;2024-02-04T01:37:51;6.50;;;3.22;;
26864;SDS011;40618;51.166;10.322;2024-02-04T01:40:16;4.82;;;3.13;;
26864;SDS011;40618;51.166;10.322;2024-02-04T01:42:42;3.50;;;3.13;;
26864;SDS011;40618;51.166;10.322;2024-02-04T01:45:08;3.72;;;3.08;;
26864;SDS011;40618;51.166;10.322;2024-02-04T01:47:34;3.42;;;3.13;;
26864;SDS011;40618;51.166;10.322;2024-02-04T01:50:00;4.35;;;3.00;;
26864;SDS011;40618;51.166;10.322;2024-02-04T01:52:27;3.78;;;2.90;;
26864;SDS011;40618;51.166;10.322;2024-02-04T01:54:55;4.13;;;2.55;;
26864;SDS011;40618;51.166;10.322;2024-02-04T01:57:21;2.70;;;2.42;;
26864;SDS011;40618;51.166;10.322;2024-02-04T01:59:47;3.40;;;2.58;;
26864;SDS011;40618;51.166;10.322;2024-02-04T02:02:16;3.33;;;2.63;;
26864;SDS011;40618;51.166;10.322;2024-02-04T02:04:43;3.30;;;2.55;;
26864;SDS011;40618;51.166;10.322;2024-02-04T02:07:09;2.70;;;2.30;;
26864;SDS011;40618;51.166;10.322;2024-02-04T02:09:35;3.30;;;2.97;;
26864;SDS011;40618;51.166;10.322;2024-02-04T02:12:07;3.83;;;3.42;;
26864;SDS011;40618;51.166;10.322;2024-02-04T02:14:41;3.25;;;2.83;;
26864;SDS011;40618;51.166;10.322;2024-02-04T02:17:12;4.75;;;3.20;;
26864;SDS011;40618;51.166;10.322;2024-02-04T02:19:46;4.50;;;3.60;;
26864;SDS011;40618;51.166;10.322;2024-02-04T02:22:24;4.75;;;3.85;;
26864;SDS011;40618;51.166;10.322;2024-02-04T02:24:58;4.75;;;4.13;;
26864;SDS011;40618;51.166;10.322;2024-02-04T02:27:25;4.60;;;3.50;;
26864;SDS011;40618;51.166;10.322;2024-02-04T02:29:51;5.72;;;3.83;;
26864;SDS011;40618;51.166;10.322;2024-02-04T02:32:17;4.82;;;3.60;;
26864;SDS011;40618;51.166;10.322;2024-02-04T02:34:44;5.18;;;3.70;;
26864;SDS011;40618;51.166;10.322;2024-02-04T02:39:52;4.10;;;3.42;;
26864;SDS011;40618;51.166;10.322;2024-02-04T02:42:25;3.03;;;2.63;;
26864;SDS011;40618;51.166;10.322;2024-02-04T02:44:52;4.65;;;3.83;;
26864;SDS011;40618;51.166;10.322;2024-02-04T02:47:20;3.13;;;2.60;;
26864;SDS011;40618;51.166;10.322;2024-02-04T02:49:48;3.38;;;3.00;;
26864;SDS011;40618;51.166;10.322;2024-02-04T02:52:18;3.42;;;2.92;;
26864;SDS011;40618;51.166;10.322;2024-02-04T02:54:43;5.70;;;3.30;;
26864;SDS011;40618;51.166;10.322;2024-02-04T02:57:09;3.65;;;2.80;;
26864;SDS011;40618;51.166;10.322;2024-02-04T02:59:34;5.60;;;2.88;;
26864;SDS011;40618;51.166;10.322;2024-02-04T03:02:00;3.72;;;3.03;;
26864;SDS011;40618;51.166;10.322;2024-02-04T03:04:25;3.45;;;2.67;;
26864;SDS011;40618;51.166;10.322;2024-02-04T03:06:51;2.80;;;2.47;;
26864;SDS011;40618;51.166;10.322;2024-02-04T03:09:16;3.95;;;2.92;;
26864;SDS011;40618;51.166;10.322;2024-02-04T03:11:42;3.28;;;2.72;;
26864;SDS011;40618;51.166;10.322;2024-02-04T03:14:08;5.38;;;2.60;;
26864;SDS011;40618;51.166;10.322;2024-02-04T03:16:33;4.15;;;2.47;;
26864;SDS011;40618;51.166;10.322;2024-02-04T03:18:59;3.58;;;2.65;;
26864;SDS011;40618;51.166;10.322;2024-02-04T03:21:24;3.60;;;2.97;;
26864;SDS011;40618;51.166;10.322;2024-02-04T03:23:50;5.05;;;2.80;;
26864;SDS011;40618;51.166;10.322;2024-02-04T03:26:18;2.70;;;2.50;;
26864;SDS011;40618;51.166;10.322;2024-02-04T03:28:44;3.25;;;2.63;;
26864;SDS011;40618;51.166;10.322;2024-02-04T03:31:10;5.38;;;2.65;;
26864;SDS011;40618;51.166;10.322;2024-02-04T03:33:35;2.38;;;2.03;;
26864;SDS011;40618;51.166;10.322;2024-02-04T03:36:01;2.95;;;2.40;;
26864;SDS011;40618;51.166;10.322;2024-02-04T03:38:26;4.38;;;3.13;;
26864;SDS011;40618;51.166;10.322;2024-02-04T03:40:52;4.32;;;2.30;;
26864;SDS011;40618;51.166;10.322;2024-02-04T03:43:18;2.47;;;2.13;;
26864;SDS011;40618;51.166;10.322;2024-02-04T03:45:43;2.90;;;2.47;;
26864;SDS011;40618;51.166;10.322;2024-02-04T03:48:09;1.95;;;1.77;;
26864;SDS011;40618;51.166;10.322;2024-02-04T03:50:35;3.25;;;1.90;;
26864;SDS011;40618;51.166;10.322;2024-02-04T03:53:01;4.18;;;1.90;;
26864;SDS011;40618;51.166;10.322;2024-02-04T03:55:27;2.00;;;1.80;;
26864;SDS011;40618;51.166;10.322;2024-02-04T03:57:54;1.80;;;1.42;;
26864;SDS011;40618;51.166;10.322;2024-02-04T04:00:22;1.45;;;1.30;;
26864;SDS011;40618;51.166;10.322;2024-02-04T04:02:47;2.03;;;1.70;;
26864;SDS011;40618;51.166;10.322;2024-02-04T04:05:13;1.67;;;1.58;;
26864;SDS011;40618;51.166;10.322;2024-02-04T04:07:39;1.60;;;1.50;;
26864;SDS011;40618;51.166;10.322;2024-02-04T04:10:05;1.48;;;1.38;;
26864;SDS011;40618;51.166;10.322;2024-02-04T04:12:31;3.45;;;1.40;;
26864;SDS011;40618;51.166;10.322;2024-02-04T04:14:57;1.80;;;1.30;;
26864;SDS011;40618;51.166;10.322;2024-02-04T04:17:22;1.77;;;1.52;;
26864;SDS011;40618;51.166;10.322;2024-02-04T04:19:48;1.38;;;1.27;;
26864;SDS011;40618;51.166;10.322;2024-02-04T04:22:14;1.25;;;1.15;;
26864;SDS011;40618;51.166;10.322;2024-02-04T04:24:39;1.50;;;1.30;;
26864;SDS011;40618;51.166;10.322;2024-02-04T04:27:05;1.40;;;1.30;;
26864;SDS011;40618;51.166;10.322;2024-02-04T04:29:30;1.85;;;1.00;;
26864;SDS011;40618;51.166;10.322;2024-02-04T04:31:56;0.73;;;0.73;;
26864;SDS011;40618;51.166;10.322;2024-02-04T04:34:22;1.23;;;1.13;;
26864;SDS011;40618;51.166;10.322;2024-02-04T04:36:47;2.25;;;1.10;;
26864;SDS011;40618;51.166;10.322;2024-02-04T04:39:13;0.90;;;0.85;;
26864;SDS011;40618;51.166;10.322;2024-02-04T04:41:39;1.02;;;0.93;;
26864;SDS011;40618;51.166;10.322;2024-02-04T04:44:07;0.70;;;0.65;;
26864;SDS011;40618;51.166;10.322;2024-02-04T04:46:32;0.70;;;0.70;;
26864;SDS011;40618;51.166;10.322;2024-02-04T04:48:58;1.33;;;0.70;;
26864;SDS011;40618;51.166;10.322;2024-02-04T04:51:24;0.63;;;0.63;;
26864;SDS011;40618;51.166;10.322;2024-02-04T04:53:49;1.77;;;1.33;;
26864;SDS011;40618;51.166;10.322;2024-02-04T04:56:15;2.50;;;1.83;;
26864;SDS011;40618;51.166;10.322;2024-02-04T04:58:40;6.50;;;4.15;;
26864;SDS011;40618;51.166;10.322;2024-02-04T05:01:06;1.30;;;1.00;;
26864;SDS011;40618;51.166;10.322;2024-02-04T05:03:32;1.45;;;1.33;;
26864;SDS011;40618;51.166;10.322;2024-02-04T05:05:57;0.63;;;0.63;;
26864;SDS011;40618;51.166;10.322;2024-02-04T05:08:23;0.38;;;0.38;;
26864;SDS011;40618;51.166;10.322;2024-02-04T05:10:49;0.60;;;0.60;;
26864;SDS011;40618;51.166;10.322;2024-02-04T05:13:14;0.95;;;0.40;;
26864;SDS011;40618;51.166;10.322;2024-02-04T05:15:40;0.38;;;0.38;;
26864;SDS011;40618;51.166;10.322;2024-02-04T05:18:05;0.68;;;0.55;;
26864;SDS011;40618;51.166;10.322;2024-02-04T05:20:31;0.40;;;0.40;;
26864;SDS011;40618;51.166;10.322;2024-02-04T05:22:57;0.30;;;0.30;;
26864;SDS011;40618;51.166;10.322;2024-02-04T05:25:23;0.32;;;0.32;;
26864;SDS011;40618;51.166;10.322;2024-02-04T05:27:50;0.50;;;0.50;;
26864;SDS011;40618;51.166;10.322;2024-02-04T05:30:16;0.20;;;0.20;;
26864;SDS011;40618;51.166;10.322;2024-02-04T05:32:42;0.40;;;0.40;;
26864;SDS011;40618;51.166;10.322;2024-02-04T05:35:09;0.10;;;0.10;;
26864;SDS011;40618;51.166;10.322;2024-02-04T05:37:35;0.20;;;0.20;;
26864;SDS011;40618;51.166;10.322;2024-02-04T05:40:01;0.30;;;0.30;;
26864;SDS011;40618;51.166;10.322;2024-02-04T05:42:28;1.75;;;0.30;;
26864;SDS011;40618;51.166;10.322;2024-02-04T05:44:53;0.32;;;0.30;;
26864;SDS011;40618;51.166;10.322;2024-02-04T05:47:19;0.50;;;0.50;;
26864;SDS011;40618;51.166;10.322;2024-02-04T05:49:44;0.55;;;0.55;;
26864;SDS011;40618;51.166;10.322;2024-02-04T05:52:11;1.63;;;1.30;;
26864;SDS011;40618;51.166;10.322;2024-02-04T05:54:37;0.30;;;0.30;;
26864;SDS011;40618;51.166;10.322;2024-02-04T05:57:06;0.55;;;0.55;;
26864;SDS011;40618;51.166;10.322;2024-02-04T05:59:33;0.57;;;0.40;;
26864;SDS011;40618;51.166;10.322;2024-02-04T06:01:59;0.88;;;0.60;;
26864;SDS011;40618;51.166;10.322;2024-02-04T06:04:24;1.77;;;1.10;;
26864;SDS011;40618;51.166;10.322;2024-02-04T06:06:50;0.50;;;0.50;;
26864;SDS011;40618;51.166;10.322;2024-02-04T06:09:16;0.60;;;0.60;;
26864;SDS011;40618;51.166;10.322;2024-02-04T06:11:44;0.30;;;0.30;;
26864;SDS011;40618;51.166;10.322;2024-02-04T06:14:11;0.32;;;0.32;;
26864;SDS011;40618;51.166;10.322;2024-02-04T06:16:37;1.30;;;0.60;;
26864;SDS011;40618;51.166;10.322;2024-02-04T06:19:03;0.50;;;0.50;;
26864;SDS011;40618;51.166;10.322;2024-02-04T06:21:28;1.00;;;0.63;;
26864;SDS011;40618;51.166;10.322;2024-02-04T06:23:54;0.50;;;0.50;;
26864;SDS011;40618;51.166;10.322;2024-02-04T06:26:19;0.75;;;0.75;;
26864;SDS011;40618;51.166;10.322;2024-02-04T06:28:45;1.00;;;0.68;;
26864;SDS011;40618;51.166;10.322;2024-02-04T06:31:13;0.95;;;0.85;;
26864;SDS011;40618;51.166;10.322;2024-02-04T06:33:39;0.95;;;0.88;;
26864;SDS011;40618;51.166;10.322;2024-02-04T06:36:08;0.90;;;0.90;;
26864;SDS011;40618;51.166;10.322;2024-02-04T06:41:01;1.17;;;0.90;;
26864;SDS011;40618;51.166;10.322;2024-02-04T06:43:26;1.05;;;0.88;;
26864;SDS011;40618;51.166;10.322;2024-02-04T06:45:52;1.63;;;1.17;;
26864;SDS011;40618;51.166;10.322;2024-02-04T06:48:20;1.15;;;0.98;;
26864;SDS011;40618;51.166;10.322;2024-02-04T06:50:46;1.27;;;1.17;;
26864;SDS011;40618;51.166;10.322;2024-02-04T06:53:13;1.67;;;1.48;;
26864;SDS011;40618;51.166;10.322;2024-02-04T06:55:39;2.85;;;2.00;;
26864;SDS011;40618;51.166;10.322;2024-02-04T06:58:05;3.35;;;2.45;;
26864;SDS011;40618;51.166;10.322;2024-02-04T07:00:30;5.07;;;3.60;;
26864;SDS011;40618;51.166;10.322;2024-02-04T07:02:56;5.68;;;3.90;;
26864;SDS011;40618;51.166;10.322;2024-02-04T07:05:22;6.88;;;4.22;;
26864;SDS011;40618;51.166;10.322;2024-02-04T07:07:48;4.43;;;2.83;;
26864;SDS011;40618;51.166;10.322;2024-02-04T07:10:15;4.40;;;2.65;;
26864;SDS011;40618;51.166;10.322;2024-02-04T07:12:41;7.13;;;4.25;;
26864;SDS011;40618;51.166;10.322;2024-02-04T07:15:07;5.18;;;2.92;;
26864;SDS011;40618;51.166;10.322;2024-02-04T07:17:33;5.43;;;3.05;;
26864;SDS011;40618;51.166;10.322;2024-02-04T07:20:01;9.57;;;3.78;;
26864;SDS011;40618;51.166;10.322;2024-02-04T07:22:27;10.38;;;5.30;;
26864;SDS011;40618;51.166;10.322;2024-02-04T07:24:53;10.70;;;5.05;;
26864;SDS011;40618;51.166;10.322;2024-02-04T07:27:19;4.82;;;2.92;;
26864;SDS011;40618;51.166;10.322;2024-02-04T07:29:44;6.97;;;3.75;;
26864;SDS011;40618;51.166;10.322;2024-02-04T07:32:12;5.20;;;3.55;;
26864;SDS011;40618;51.166;10.322;2024-02-04T07:34:39;2.83;;;1.95;;
26864;SDS011;40618;51.166;10.322;2024-02-04T07:37:05;3.53;;;2.30;;
26864;SDS011;40618;51.166;10.322;2024-02-04T07:39:31;4.88;;;2.80;;
26864;SDS011;40618;51.166;10.322;2024-02-04T07:41:57;5.30;;;3.00;;
26864;SDS011;40618;51.166;10.322;2024-02-04T07:44:25;5.97;;;3.60;;
26864;SDS011;40618;51.166;10.322;2024-02-04T07:46:54;8.38;;;3.80;;
26864;SDS011;40618;51.166;10.322;2024-02-04T07:49:20;4.40;;;3.05;;
26864;SDS011;40618;51.166;10.322;2024-02-04T07:51:45;6.43;;;3.75;;
26864;SDS011;40618;51.166;10.322;2024-02-04T07:54:11;7.38;;;3.88;;
26864;SDS011;40618;51.166;10.322;2024-02-04T07:56:37;3.58;;;2.22;;
26864;SDS011;40618;51.166;10.322;2024-02-04T07:59:02;7.57;;;4.25;;
26864;SDS011;40618;51.166;10.322;2024-02-04T08:01:28;9.18;;;4.68;;
26864;SDS011;40618;51.166;10.322;2024-02-04T08:03:55;3.53;;;2.20;;
26864;SDS011;40618;51.166;10.322;2024-02-04T08:06:21;3.33;;;2.20;;
26864;SDS011;40618;51.166;10.322;2024-02-04T08:08:47;4.30;;;2.55;;
26864;SDS011;40618;51.166;10.322;2024-02-04T08:11:16;3.05;;;1.98;;
26864;SDS011;40618;51.166;10.322;2024-02-04T08:13:42;1.50;;;1.20;;
26864;SDS011;40618;51.166;10.322;2024-02-04T08:16:09;1.33;;;1.05;;
26864;SDS011;40618;51.166;10.322;2024-02-04T08:18:35;0.80;;;0.80;;
26864;SDS011;40618;51.166;10.322;2024-02-04T08:21:00;1.40;;;1.27;;
26864;SDS011;40618;51.166;10.322;2024-02-04T08:23:26;1.23;;;0.70;;
26864;SDS011;40618;51.166;10.322;2024-02-04T08:25:52;1.30;;;1.20;;
26864;SDS011;40618;51.166;10.322;2024-02-04T08:28:17;1.20;;;1.10;;
26864;SDS011;40618;51.166;10.322;2024-02-04T08:30:43;1.10;;;1.00;;
26864;SDS011;40618;51.166;10.322;2024-02-04T08:33:08;1.38;;;1.20;;
26864;SDS011;40618;51.166;10.322;2024-02-04T08:35:34;1.38;;;1.27;;
26864;SDS011;40618;51.166;10.322;2024-02-04T08:37:59;1.80;;;1.40;;
26864;SDS011;40618;51.166;10.322;2024-02-04T08:40:25;1.58;;;1.40;;
26864;SDS011;40618;51.166;10.322;2024-02-04T08:42:51;1.98;;;1.70;;
26864;SDS011;40618;51.166;10.322;2024-02-04T08:45:16;2.67;;;2.13;;
26864;SDS011;40618;51.166;10.322;2024-02-04T08:47:42;1.98;;;1.60;;
26864;SDS011;40618;51.166;10.322;2024-02-04T08:50:07;5.88;;;3.28;;
26864;SDS011;40618;51.166;10.322;2024-02-04T08:52:34;2.88;;;2.30;;
26864;SDS011;40618;51.166;10.322;2024-02-04T08:54:59;2.20;;;1.70;;
26864;SDS011;40618;51.166;10.322;2024-02-04T08:57:25;1.80;;;1.60;;
26864;SDS011;40618;51.166;10.322;2024-02-04T08:59:50;2.58;;;1.80;;
26864;SDS011;40618;51.166;10.322;2024-02-04T09:02:16;2.30;;;1.98;;
26864;SDS011;40618;51.166;10.322;2024-02-04T09:04:42;2.67;;;2.00;;
26864;SDS011;40618;51.166;10.322;2024-02-04T09:07:08;2.53;;;1.95;;
26864;SDS011;40618;51.166;10.322;2024-02-04T09:09:34;3.30;;;2.10;;
26864;SDS011;40618;51.166;10.322;2024-02-04T09:11:59;2.75;;;2.42;;
26864;SDS011;40618;51.166;10.322;2024-02-04T09:14:25;2.50;;;1.70;;
26864;SDS011;40618;51.166;10.322;2024-02-04T09:16:50;1.92;;;1.70;;
26864;SDS011;40618;51.166;10.322;2024-02-04T09:19:16;2.45;;;2.15;;
26864;SDS011;40618;51.166;10.322;2024-02-04T09:21:41;3.22;;;2.20;;
26864;SDS011;40618;51.166;10.322;2024-02-04T09:24:07;4.15;;;2.45;;
26864;SDS011;40618;51.166;10.322;2024-02-04T09:26:34;2.03;;;1.83;;
26864;SDS011;40618;51.166;10.322;2024-02-04T09:29:00;1.95;;;1.75;;
26864;SDS011;40618;51.166;10.322;2024-02-04T09:31:25;2.80;;;1.98;;
26864;SDS011;40618;51.166;10.322;2024-02-04T09:33:51;2.95;;;2.40;;
26864;SDS011;40618;51.166;10.322;2024-02-04T09:36:17;4.15;;;2.25;;
26864;SDS011;40618;51.166;10.322;2024-02-04T09:38:42;3.08;;;1.85;;
26864;SDS011;40618;51.166;10.322;2024-02-04T09:41:08;3.40;;;2.20;;
26864;SDS011;40618;51.166;10.322;2024-02-04T09:43:33;2.88;;;2.58;;
26864;SDS011;40618;51.166;10.322;2024-02-04T09:46:02;2.95;;;2.40;;
26864;SDS011;40618;51.166;10.322;2024-02-04T09:48:32;3.80;;;3.00;;
26864;SDS011;40618;51.166;10.322;2024-02-04T09:50:58;5.13;;;2.67;;
26864;SDS011;40618;51.166;10.322;2024-02-04T09:53:34;2.95;;;2.30;;
26864;SDS011;40618;51.166;10.322;2024-02-04T09:56:03;6.20;;;2.35;;
26864;SDS011;40618;51.166;10.322;2024-02-04T09:58:32;6.82;;;3.42;;
26864;SDS011;40618;51.166;10.322;2024-02-04T10:00:59;5.35;;;3.90;;
26864;SDS011;40618;51.166;10.322;2024-02-04T10:03:25;4.82;;;3.83;;
26864;SDS011;40618;51.166;10.322;2024-02-04T10:05:52;3.85;;;2.53;;
26864;SDS011;40618;51.166;10.322;2024-02-04T10:08:17;4.63;;;3.35;;
26864;SDS011;40618;51.166;10.322;2024-02-04T10:10:44;5.60;;;3.53;;
26864;SDS011;40618;51.166;10.322;2024-02-04T10:13:10;3.65;;;2.67;;
26864;SDS011;40618;51.166;10.322;2024-02-04T10:15:36;5.78;;;2.78;;
26864;SDS011;40618;51.166;10.322;2024-02-04T10:18:05;4.22;;;3.03;;
26864;SDS011;40618;51.166;10.322;2024-02-04T10:20:32;5.45;;;3.00;;
26864;SDS011;40618;51.166;10.322;2024-02-04T10:22:58;4.38;;;2.53;;
26864;SDS011;40618;51.166;10.322;2024-02-04T10:25:24;2.78;;;1.80;;
26864;SDS011;40618;51.166;10.322;2024-02-04T10:27:50;4.15;;;2.50;;
26864;SDS011;40618;51.166;10.322;2024-02-04T10:30:18;3.38;;;1.88;;
26864;SDS011;40618;51.166;10.322;2024-02-04T10:32:49;3.65;;;2.08;;
26864;SDS011;40618;51.166;10.322;2024-02-04T10:35:16;3.63;;;1.92;;
26864;SDS011;40618;51.166;10.322;2024-02-04T10:37:45;4.07;;;2.35;;
26864;SDS011;40618;51.166;10.322;2024-02-04T10:40:11;4.78;;;2.60;;
26864;SDS011;40618;51.166;10.322;2024-02-04T10:42:37;4.03;;;2.03;;
26864;SDS011;40618;51.166;10.322;2024-02-04T10:45:06;1.65;;;1.23;;
26864;SDS011;40618;51.166;10.322;2024-02-04T10:47:36;2.15;;;1.48;;
26864;SDS011;40618;51.166;10.322;2024-02-04T10:50:03;1.80;;;1.30;;
26864;SDS011;40618;51.166;10.322;2024-02-04T10:52:39;2.40;;;1.30;;
26864;SDS011;40618;51.166;10.322;2024-02-04T10:55:11;1.60;;;1.20;;
26864;SDS011;40618;51.166;10.322;2024-02-04T10:57:37;2.15;;;1.50;;
26864;SDS011;40618;51.166;10.322;2024-02-04T11:00:05;1.42;;;1.02;;
26864;SDS011;40618;51.166;10.322;2024-02-04T11:02:36;1.10;;;0.90;;
26864;SDS011;40618;51.166;10.322;2024-02-04T11:07:34;3.17;;;1.50;;
26864;SDS011;40618;51.166;10.322;2024-02-04T11:10:00;0.95;;;0.80;;
26864;SDS011;40618;51.166;10.322;2024-02-04T11:12:28;1.30;;;1.05;;
26864;SDS011;40618;51.166;10.322;2024-02-04T11:14:57;3.08;;;2.10;;
26864;SDS011;40618;51.166;10.322;2024-02-04T11:20:48;1.50;;;1.40;;
26864;SDS011;40618;51.166;10.322;2024-02-04T11:26:32;1.88;;;1.10;;
26864;SDS011;40618;51.166;10.322;2024-02-04T11:28:59;1.10;;;1.00;;
26864;SDS011;40618;51.166;10.322;2024-02-04T11:31:27;1.75;;;1.00;;
26864;SDS011;40618;51.166;10.322;2024-02-04T11:33:54;1.80;;;0.95;;
26864;SDS011;40618;51.166;10.322;2024-02-04T11:36:24;1.15;;;0.80;;
26864;SDS011;40618;51.166;10.322;2024-02-04T11:38:50;1.05;;;0.88;;
26864;SDS011;40618;51.166;10.322;2024-02-04T11:41:23;1.55;;;0.77;;
26864;SDS011;40618;51.166;10.322;2024-02-04T11:43:51;1.38;;;1.00;;
26864;SDS011;40618;51.166;10.322;2024-02-04T11:46:19;3.00;;;1.35;;
26864;SDS011;40618;51.166;10.322;2024-02-04T11:48:51;1.33;;;1.00;;
26864;SDS011;40618;51.166;10.322;2024-02-04T11:51:23;2.00;;;1.65;;
26864;SDS011;40618;51.166;10.322;2024-02-04T11:53:50;3.13;;;1.90;;
26864;SDS011;40618;51.166;10.322;2024-02-04T11:56:19;4.15;;;1.83;;
26864;SDS011;40618;51.166;10.322;2024-02-04T11:58:46;6.13;;;2.65;;
26864;SDS011;40618;51.166;10.322;2024-02-04T12:01:12;6.78;;;4.22;;
26864;SDS011;40618;51.166;10.322;2024-02-04T12:03:38;9.40;;;7.45;;
26864;SDS011;40618;51.166;10.322;2024-02-04T12:06:04;5.68;;;2.95;;
26864;SDS011;40618;51.166;10.322;2024-02-04T12:08:32;2.95;;;1.10;;
26864;SDS011;40618;51.166;10.322;2024-02-04T12:10:59;1.50;;;1.20;;
26864;SDS011;40618;51.166;10.322;2024-02-04T12:13:27;1.13;;;1.02;;
26864;SDS011;40618;51.166;10.322;2024-02-04T12:15:53;0.80;;;0.80;;
26864;SDS011;40618;51.166;10.322;2024-02-04T12:18:19;0.80;;;0.77;;
26864;SDS011;40618;51.166;10.322;2024-02-04T12:20:46;1.00;;;0.90;;
26864;SDS011;40618;51.166;10.322;2024-02-04T12:23:16;1.60;;;1.05;;
26864;SDS011;40618;51.166;10.322;2024-02-04T12:25:46;0.95;;;0.68;;
26864;SDS011;40618;51.166;10.322;2024-02-04T12:28:12;2.40;;;1.10;;
26864;SDS011;40618;51.166;10.322;2024-02-04T12:30:39;0.95;;;0.52;;
26864;SDS011;40618;51.166;10.322;2024-02-04T12:33:05;0.70;;;0.70;;
26864;SDS011;40618;51.166;10.322;2024-02-04T12:35:31;0.80;;;0.80;;
26864;SDS011;40618;51.166;10.322;2024-02-04T12:37:58;1.35;;;0.60;;
26864;SDS011;40618;51.166;10.322;2024-02-04T12:40:25;0.57;;;0.57;;
26864;SDS011;40618;51.166;10.322;2024-02-04T12:43:00;1.02;;;0.77;;
26864;SDS011;40618;51.166;10.322;2024-02-04T12:45:27;0.63;;;0.63;;
26864;SDS011;40618;51.166;10.322;2024-02-04T12:47:54;0.50;;;0.50;;
26864;SDS011;40618;51.166;10.322;2024-02-04T12:50:22;0.65;;;0.60;;
26864;SDS011;40618;51.166;10.322;2024-02-04T12:52:50;1.67;;;0.63;;
26864;SDS011;40618;51.166;10.322;2024-02-04T12:55:32;0.98;;;0.75;;
26864;SDS011;40618;51.166;10.322;2024-02-04T12:58:03;0.93;;;0.93;;
26864;SDS011;40618;51.166;10.322;2024-02-04T13:00:31;2.35;;;0.80;;
26864;SDS011;40618;51.166;10.322;2024-02-04T13:02:58;1.63;;;0.93;;
26864;SDS011;40618;51.166;10.322;2024-02-04T13:05:24;0.60;;;0.60;;
26864;SDS011;40618;51.166;10.322;2024-02-04T13:07:54;1.40;;;1.05;;
26864;SDS011;40618;51.166;10.322;2024-02-04T13:10:24;1.38;;;1.10;;
26864;SDS011;40618;51.166;10.322;2024-02-04T13:15:30;1.00;;;0.90;;
26864;SDS011;40618;51.166;10.322;2024-02-04T13:17:59;2.45;;;1.48;;
26864;SDS011;40618;51.166;10.322;2024-02-04T13:20:25;1.27;;;1.17;;
26864;SDS011;40618;51.166;10.322;2024-02-04T13:22:51;1.10;;;1.00;;
26864;SDS011;40618;51.166;10.322;2024-02-04T13:25:19;0.93;;;0.82;;
26864;SDS011;40618;51.166;10.322;2024-02-04T13:27:46;2.13;;;1.13;;
26864;SDS011;40618;51.166;10.322;2024-02-04T13:30:14;0.90;;;0.90;;
26864;SDS011;40618;51.166;10.322;2024-02-04T13:32:40;1.67;;;1.17;;
26864;SDS011;40618;51.166;10.322;2024-02-04T13:35:07;1.42;;;1.10;;
26864;SDS011;40618;51.166;10.322;2024-02-04T13:37:35;1.25;;;1.10;;
26864;SDS011;40618;51.166;10.322;2024-02-04T13:40:03;1.75;;;1.58;;
26864;SDS011;40618;51.166;10.322;2024-02-04T13:42:31;3.13;;;1.75;;
26864;SDS011;40618;51.166;10.322;2024-02-04T13:44:58;1.25;;;1.05;;
26864;SDS011;40618;51.166;10.322;2024-02-04T13:47:24;0.90;;;0.80;;
26864;SDS011;40618;51.166;10.322;2024-02-04T13:49:50;1.30;;;1.00;;
26864;SDS011;40618;51.166;10.322;2024-02-04T13:52:16;0.82;;;0.60;;
26864;SDS011;40618;51.166;10.322;2024-02-04T13:54:41;1.10;;;1.00;;
26864;SDS011;40618;51.166;10.322;2024-02-04T13:57:07;1.23;;;0.80;;
26864;SDS011;40618;51.166;10.322;2024-02-04T13:59:32;2.35;;;1.20;;
26864;SDS011;40618;51.166;10.322;2024-02-04T14:01:58;0.85;;;0.70;;
26864;SDS011;40618;51.166;10.322;2024-02-04T14:04:23;1.00;;;0.90;;
26864;SDS011;40618;51.166;10.322;2024-02-04T14:06:49;1.98;;;1.02;;
26864;SDS011;40618;51.166;10.322;2024-02-04T14:09:14;1.13;;;1.02;;
26864;SDS011;40618;51.166;10.322;2024-02-04T14:11:41;2.03;;;1.60;;
26864;SDS011;40618;51.166;10.322;2024-02-04T14:14:06;0.93;;;0.80;;
26864;SDS011;40618;51.166;10.322;2024-02-04T14:16:32;1.35;;;1.25;;
26864;SDS011;40618;51.166;10.322;2024-02-04T14:18:58;1.30;;;0.90;;
26864;SDS011;40618;51.166;10.322;2024-02-04T14:21:24;0.77;;;0.77;;
26864;SDS011;40618;51.166;10.322;2024-02-04T14:23:49;0.98;;;0.95;;
26864;SDS011;40618;51.166;10.322;2024-02-04T14:26:18;1.17;;;0.95;;
26864;SDS011;40618;51.166;10.322;2024-02-04T14:31:11;3.05;;;1.00;;
26864;SDS011;40618;51.166;10.322;2024-02-04T14:33:37;1.00;;;0.88;;
26864;SDS011;40618;51.166;10.322;2024-02-04T14:36:03;1.00;;;0.80;;
26864;SDS011;40618;51.166;10.322;2024-02-04T14:38:29;1.00;;;0.85;;
26864;SDS011;40618;51.166;10.322;2024-02-04T14:40:57;1.00;;;0.90;;
26864;SDS011;40618;51.166;10.322;2024-02-04T14:43:23;0.90;;;0.80;;
26864;SDS011;40618;51.166;10.322;2024-02-04T14:45:50;0.93;;;0.80;;
26864;SDS011;40618;51.166;10.322;2024-02-04T14:48:17;2.03;;;0.90;;